sensor_id;sensor_type;location;lat;lon;timestamp;P1;durP1;ratioP1;P2;durP2;ratioP2
30677;SDS011;73746;47.466;8.992;2024-02-04T00:01:39;7.95;;;5.85;;
30677;SDS011;73746;47.466;8.992;2024-02-04T00:04:12;11.10;;;6.35;;
30677;SDS011;73746;47.466;8.992;2024-02-04T00:06:44;11.95;;;7.33;;
30677;SDS011;73746;47.466;8.992;2024-02-04T00:09:16;12.15;;;6.85;;
30677;SDS011;73746;47.466;8.992;2024-02-04T00:11:48;10.68;;;6.45;;
30677;SDS011;73746;47.466;8.992;2024-02-04T00:14:20;8.13;;;5.97;;
30677;SDS011;73746;47.466;8.992;2024-02-04T00:16:52;11.08;;;6.60;;
30677;SDS011;73746;47.466;8.992;2024-02-04T00:19:24;8.13;;;5.60;;
30677;SDS011;73746;47.466;8.992;2024-02-04T00:21:56;12.23;;;8.25;;
30677;SDS011;73746;47.466;8.992;2024-02-04T00:24:28;12.03;;;7.87;;
30677;SDS011;73746;47.466;8.992;2024-02-04T00:27:00;9.68;;;6.97;;
30677;SDS011;73746;47.466;8.992;2024-02-04T00:29:32;11.93;;;7.60;;
30677;SDS011;73746;47.466;8.992;2024-02-04T00:32:04;11.88;;;7.65;;
30677;SDS011;73746;47.466;8.992;2024-02-04T00:37:20;12.75;;;7.67;;
30677;SDS011;73746;47.466;8.992;2024-02-04T00:39:52;12.13;;;8.28;;
30677;SDS011;73746;47.466;8.992;2024-02-04T00:42:23;10.85;;;8.18;;
30677;SDS011;73746;47.466;8.992;2024-02-04T00:44:55;13.28;;;8.75;;
30677;SDS011;73746;47.466;8.992;2024-02-04T00:47:27;10.08;;;6.97;;
30677;SDS011;73746;47.466;8.992;2024-02-04T00:49:59;10.28;;;7.47;;
30677;SDS011;73746;47.466;8.992;2024-02-04T00:52:31;13.08;;;8.50;;
30677;SDS011;73746;47.466;8.992;2024-02-04T00:55:03;18.37;;;9.95;;
30677;SDS011;73746;47.466;8.992;2024-02-04T00:57:36;15.90;;;11.55;;
30677;SDS011;73746;47.466;8.992;2024-02-04T01:00:09;15.40;;;9.13;;
30677;SDS011;73746;47.466;8.992;2024-02-04T01:02:42;16.97;;;9.48;;
30677;SDS011;73746;47.466;8.992;2024-02-04T01:05:14;15.85;;;9.15;;
30677;SDS011;73746;47.466;8.992;2024-02-04T01:07:46;12.25;;;8.58;;
30677;SDS011;73746;47.466;8.992;2024-02-04T01:10:17;13.65;;;9.30;;
30677;SDS011;73746;47.466;8.992;2024-02-04T01:12:49;16.05;;;9.83;;
30677;SDS011;73746;47.466;8.992;2024-02-04T01:15:21;18.00;;;10.60;;
30677;SDS011;73746;47.466;8.992;2024-02-04T01:17:55;16.73;;;9.70;;
30677;SDS011;73746;47.466;8.992;2024-02-04T01:20:26;14.60;;;9.98;;
30677;SDS011;73746;47.466;8.992;2024-02-04T01:22:58;15.58;;;9.88;;
30677;SDS011;73746;47.466;8.992;2024-02-04T01:25:30;14.70;;;9.60;;
30677;SDS011;73746;47.466;8.992;2024-02-04T01:28:02;16.30;;;9.88;;
30677;SDS011;73746;47.466;8.992;2024-02-04T01:30:34;14.23;;;8.53;;
30677;SDS011;73746;47.466;8.992;2024-02-04T01:33:06;14.03;;;9.35;;
30677;SDS011;73746;47.466;8.992;2024-02-04T01:35:39;11.18;;;8.33;;
30677;SDS011;73746;47.466;8.992;2024-02-04T01:38:10;15.98;;;9.63;;
30677;SDS011;73746;47.466;8.992;2024-02-04T01:40:42;14.78;;;9.18;;
30677;SDS011;73746;47.466;8.992;2024-02-04T01:43:16;13.93;;;9.70;;
30677;SDS011;73746;47.466;8.992;2024-02-04T01:45:49;13.53;;;10.40;;
30677;SDS011;73746;47.466;8.992;2024-02-04T01:48:22;11.85;;;9.55;;
30677;SDS011;73746;47.466;8.992;2024-02-04T01:50:55;13.18;;;8.68;;
30677;SDS011;73746;47.466;8.992;2024-02-04T01:53:29;13.15;;;8.93;;
30677;SDS011;73746;47.466;8.992;2024-02-04T01:56:05;16.05;;;10.45;;
30677;SDS011;73746;47.466;8.992;2024-02-04T01:58:37;16.40;;;11.80;;
30677;SDS011;73746;47.466;8.992;2024-02-04T02:01:09;16.23;;;11.30;;
30677;SDS011;73746;47.466;8.992;2024-02-04T02:03:41;16.20;;;9.95;;
30677;SDS011;73746;47.466;8.992;2024-02-04T02:06:13;19.35;;;12.33;;
30677;SDS011;73746;47.466;8.992;2024-02-04T02:08:46;22.35;;;13.98;;
30677;SDS011;73746;47.466;8.992;2024-02-04T02:11:21;19.17;;;11.43;;
30677;SDS011;73746;47.466;8.992;2024-02-04T02:13:55;19.77;;;13.30;;
30677;SDS011;73746;47.466;8.992;2024-02-04T02:16:30;23.45;;;12.82;;
30677;SDS011;73746;47.466;8.992;2024-02-04T02:19:06;15.28;;;12.03;;
30677;SDS011;73746;47.466;8.992;2024-02-04T02:21:44;19.67;;;12.50;;
30677;SDS011;73746;47.466;8.992;2024-02-04T02:24:26;17.32;;;10.93;;
30677;SDS011;73746;47.466;8.992;2024-02-04T02:27:03;15.60;;;10.93;;
30677;SDS011;73746;47.466;8.992;2024-02-04T02:29:35;16.90;;;11.30;;
30677;SDS011;73746;47.466;8.992;2024-02-04T02:32:07;18.62;;;11.80;;
30677;SDS011;73746;47.466;8.992;2024-02-04T02:34:39;19.67;;;11.05;;
30677;SDS011;73746;47.466;8.992;2024-02-04T02:37:22;16.60;;;11.60;;
30677;SDS011;73746;47.466;8.992;2024-02-04T02:42:25;16.52;;;11.63;;
30677;SDS011;73746;47.466;8.992;2024-02-04T02:44:59;21.33;;;12.25;;
30677;SDS011;73746;47.466;8.992;2024-02-04T02:47:31;19.07;;;12.60;;
30677;SDS011;73746;47.466;8.992;2024-02-04T02:50:04;15.65;;;11.38;;
30677;SDS011;73746;47.466;8.992;2024-02-04T02:52:37;23.77;;;15.10;;
30677;SDS011;73746;47.466;8.992;2024-02-04T02:55:09;20.50;;;13.60;;
30677;SDS011;73746;47.466;8.992;2024-02-04T02:57:41;17.02;;;11.48;;
30677;SDS011;73746;47.466;8.992;2024-02-04T03:00:14;12.15;;;8.10;;
30677;SDS011;73746;47.466;8.992;2024-02-04T03:02:46;14.10;;;9.83;;
30677;SDS011;73746;47.466;8.992;2024-02-04T03:05:18;12.65;;;8.73;;
30677;SDS011;73746;47.466;8.992;2024-02-04T03:07:50;12.55;;;8.80;;
30677;SDS011;73746;47.466;8.992;2024-02-04T03:10:22;13.22;;;9.68;;
30677;SDS011;73746;47.466;8.992;2024-02-04T03:12:54;12.03;;;8.90;;
30677;SDS011;73746;47.466;8.992;2024-02-04T03:15:26;15.98;;;10.15;;
30677;SDS011;73746;47.466;8.992;2024-02-04T03:17:58;12.28;;;8.55;;
30677;SDS011;73746;47.466;8.992;2024-02-04T03:20:29;14.23;;;9.78;;
30677;SDS011;73746;47.466;8.992;2024-02-04T03:23:01;15.35;;;9.48;;
30677;SDS011;73746;47.466;8.992;2024-02-04T03:25:33;15.55;;;10.90;;
30677;SDS011;73746;47.466;8.992;2024-02-04T03:28:05;15.88;;;10.35;;
30677;SDS011;73746;47.466;8.992;2024-02-04T03:30:37;12.75;;;8.58;;
30677;SDS011;73746;47.466;8.992;2024-02-04T03:33:09;15.75;;;10.88;;
30677;SDS011;73746;47.466;8.992;2024-02-04T03:35:41;14.90;;;9.93;;
30677;SDS011;73746;47.466;8.992;2024-02-04T03:38:13;13.08;;;10.05;;
30677;SDS011;73746;47.466;8.992;2024-02-04T03:40:45;16.75;;;11.05;;
30677;SDS011;73746;47.466;8.992;2024-02-04T03:43:18;15.63;;;10.00;;
30677;SDS011;73746;47.466;8.992;2024-02-04T03:45:50;13.55;;;10.20;;
30677;SDS011;73746;47.466;8.992;2024-02-04T03:48:22;15.68;;;10.63;;
30677;SDS011;73746;47.466;8.992;2024-02-04T03:50:54;14.18;;;8.48;;
30677;SDS011;73746;47.466;8.992;2024-02-04T03:53:26;12.28;;;9.38;;
30677;SDS011;73746;47.466;8.992;2024-02-04T03:55:58;15.05;;;9.30;;
30677;SDS011;73746;47.466;8.992;2024-02-04T03:58:30;14.40;;;9.63;;
30677;SDS011;73746;47.466;8.992;2024-02-04T04:01:04;13.30;;;9.15;;
30677;SDS011;73746;47.466;8.992;2024-02-04T04:03:39;11.22;;;7.60;;
30677;SDS011;73746;47.466;8.992;2024-02-04T04:06:11;17.32;;;9.18;;
30677;SDS011;73746;47.466;8.992;2024-02-04T04:08:43;12.70;;;9.48;;
30677;SDS011;73746;47.466;8.992;2024-02-04T04:11:15;14.35;;;9.53;;
30677;SDS011;73746;47.466;8.992;2024-02-04T04:13:48;13.28;;;9.88;;
30677;SDS011;73746;47.466;8.992;2024-02-04T04:16:21;12.58;;;8.68;;
30677;SDS011;73746;47.466;8.992;2024-02-04T04:18:53;12.28;;;9.10;;
30677;SDS011;73746;47.466;8.992;2024-02-04T04:21:25;12.47;;;9.40;;
30677;SDS011;73746;47.466;8.992;2024-02-04T04:23:56;12.30;;;8.65;;
30677;SDS011;73746;47.466;8.992;2024-02-04T04:26:28;14.07;;;9.73;;
30677;SDS011;73746;47.466;8.992;2024-02-04T04:29:01;11.75;;;8.55;;
30677;SDS011;73746;47.466;8.992;2024-02-04T04:31:32;12.78;;;8.50;;
30677;SDS011;73746;47.466;8.992;2024-02-04T04:34:04;14.63;;;9.65;;
30677;SDS011;73746;47.466;8.992;2024-02-04T04:36:37;16.05;;;8.48;;
30677;SDS011;73746;47.466;8.992;2024-02-04T04:39:09;14.93;;;9.85;;
30677;SDS011;73746;47.466;8.992;2024-02-04T04:41:43;14.58;;;8.30;;
30677;SDS011;73746;47.466;8.992;2024-02-04T04:44:14;14.28;;;10.53;;
30677;SDS011;73746;47.466;8.992;2024-02-04T04:46:46;15.45;;;10.72;;
30677;SDS011;73746;47.466;8.992;2024-02-04T04:49:18;13.38;;;9.18;;
30677;SDS011;73746;47.466;8.992;2024-02-04T04:51:50;14.50;;;9.85;;
30677;SDS011;73746;47.466;8.992;2024-02-04T04:54:22;17.05;;;10.35;;
30677;SDS011;73746;47.466;8.992;2024-02-04T04:56:54;15.28;;;9.78;;
30677;SDS011;73746;47.466;8.992;2024-02-04T04:59:26;15.88;;;9.60;;
30677;SDS011;73746;47.466;8.992;2024-02-04T05:01:58;13.48;;;9.70;;
30677;SDS011;73746;47.466;8.992;2024-02-04T05:04:30;16.05;;;10.38;;
30677;SDS011;73746;47.466;8.992;2024-02-04T05:07:02;18.75;;;9.95;;
30677;SDS011;73746;47.466;8.992;2024-02-04T05:09:35;16.95;;;10.25;;
30677;SDS011;73746;47.466;8.992;2024-02-04T05:12:07;15.70;;;10.13;;
30677;SDS011;73746;47.466;8.992;2024-02-04T05:14:39;15.90;;;10.28;;
30677;SDS011;73746;47.466;8.992;2024-02-04T05:17:11;16.27;;;9.85;;
30677;SDS011;73746;47.466;8.992;2024-02-04T05:19:43;17.62;;;11.83;;
30677;SDS011;73746;47.466;8.992;2024-02-04T05:22:15;13.05;;;9.70;;
30677;SDS011;73746;47.466;8.992;2024-02-04T05:24:47;16.45;;;10.35;;
30677;SDS011;73746;47.466;8.992;2024-02-04T05:27:19;16.97;;;11.88;;
30677;SDS011;73746;47.466;8.992;2024-02-04T05:29:52;16.15;;;10.72;;
30677;SDS011;73746;47.466;8.992;2024-02-04T05:32:24;17.82;;;12.15;;
30677;SDS011;73746;47.466;8.992;2024-02-04T05:34:55;18.32;;;11.53;;
30677;SDS011;73746;47.466;8.992;2024-02-04T05:37:27;22.73;;;12.63;;
30677;SDS011;73746;47.466;8.992;2024-02-04T05:39:59;14.47;;;9.30;;
30677;SDS011;73746;47.466;8.992;2024-02-04T05:42:31;16.93;;;10.95;;
30677;SDS011;73746;47.466;8.992;2024-02-04T05:45:05;15.30;;;10.03;;
30677;SDS011;73746;47.466;8.992;2024-02-04T05:47:39;18.92;;;13.40;;
30677;SDS011;73746;47.466;8.992;2024-02-04T05:50:11;17.60;;;11.63;;
30677;SDS011;73746;47.466;8.992;2024-02-04T05:52:43;21.20;;;12.90;;
30677;SDS011;73746;47.466;8.992;2024-02-04T05:55:15;19.07;;;12.45;;
30677;SDS011;73746;47.466;8.992;2024-02-04T05:57:47;15.05;;;9.58;;
30677;SDS011;73746;47.466;8.992;2024-02-04T06:00:19;16.90;;;11.10;;
30677;SDS011;73746;47.466;8.992;2024-02-04T06:02:51;13.93;;;9.18;;
30677;SDS011;73746;47.466;8.992;2024-02-04T06:05:23;14.30;;;10.13;;
30677;SDS011;73746;47.466;8.992;2024-02-04T06:07:55;16.95;;;11.15;;
30677;SDS011;73746;47.466;8.992;2024-02-04T06:10:26;17.37;;;10.88;;
30677;SDS011;73746;47.466;8.992;2024-02-04T06:12:58;17.80;;;9.90;;
30677;SDS011;73746;47.466;8.992;2024-02-04T06:15:30;18.27;;;10.48;;
30677;SDS011;73746;47.466;8.992;2024-02-04T06:18:04;16.02;;;10.58;;
30677;SDS011;73746;47.466;8.992;2024-02-04T06:20:36;14.33;;;9.03;;
30677;SDS011;73746;47.466;8.992;2024-02-04T06:23:08;22.20;;;11.18;;
30677;SDS011;73746;47.466;8.992;2024-02-04T06:25:40;14.68;;;9.50;;
30677;SDS011;73746;47.466;8.992;2024-02-04T06:28:12;12.25;;;8.48;;
30677;SDS011;73746;47.466;8.992;2024-02-04T06:30:44;12.25;;;7.37;;
30677;SDS011;73746;47.466;8.992;2024-02-04T06:33:16;12.88;;;8.70;;
30677;SDS011;73746;47.466;8.992;2024-02-04T06:35:48;11.75;;;8.13;;
30677;SDS011;73746;47.466;8.992;2024-02-04T06:38:20;13.68;;;9.33;;
30677;SDS011;73746;47.466;8.992;2024-02-04T06:40:51;13.32;;;8.35;;
30677;SDS011;73746;47.466;8.992;2024-02-04T06:43:23;11.38;;;7.72;;
30677;SDS011;73746;47.466;8.992;2024-02-04T06:45:55;14.28;;;9.50;;
30677;SDS011;73746;47.466;8.992;2024-02-04T06:48:27;11.73;;;8.80;;
30677;SDS011;73746;47.466;8.992;2024-02-04T06:50:59;13.62;;;8.75;;
30677;SDS011;73746;47.466;8.992;2024-02-04T06:53:31;20.05;;;12.28;;
30677;SDS011;73746;47.466;8.992;2024-02-04T06:56:04;15.38;;;9.18;;
30677;SDS011;73746;47.466;8.992;2024-02-04T06:58:37;15.38;;;9.75;;
30677;SDS011;73746;47.466;8.992;2024-02-04T07:01:09;13.80;;;9.70;;
30677;SDS011;73746;47.466;8.992;2024-02-04T07:03:42;15.18;;;10.28;;
30677;SDS011;73746;47.466;8.992;2024-02-04T07:06:14;14.73;;;9.90;;
30677;SDS011;73746;47.466;8.992;2024-02-04T07:08:46;15.43;;;8.88;;
30677;SDS011;73746;47.466;8.992;2024-02-04T07:11:18;11.83;;;8.20;;
30677;SDS011;73746;47.466;8.992;2024-02-04T07:13:50;14.28;;;9.55;;
30677;SDS011;73746;47.466;8.992;2024-02-04T07:16:24;15.98;;;9.70;;
30677;SDS011;73746;47.466;8.992;2024-02-04T07:18:55;13.32;;;10.35;;
30677;SDS011;73746;47.466;8.992;2024-02-04T07:21:27;14.73;;;11.33;;
30677;SDS011;73746;47.466;8.992;2024-02-04T07:23:59;15.78;;;9.40;;
30677;SDS011;73746;47.466;8.992;2024-02-04T07:26:32;14.53;;;9.28;;
30677;SDS011;73746;47.466;8.992;2024-02-04T07:29:03;79.70;;;43.90;;
30677;SDS011;73746;47.466;8.992;2024-02-04T07:31:35;17.60;;;11.68;;
30677;SDS011;73746;47.466;8.992;2024-02-04T07:34:07;14.00;;;9.18;;
30677;SDS011;73746;47.466;8.992;2024-02-04T07:36:39;14.75;;;10.18;;
30677;SDS011;73746;47.466;8.992;2024-02-04T07:39:11;15.53;;;9.28;;
30677;SDS011;73746;47.466;8.992;2024-02-04T07:41:43;10.98;;;7.90;;
30677;SDS011;73746;47.466;8.992;2024-02-04T07:44:15;11.53;;;8.45;;
30677;SDS011;73746;47.466;8.992;2024-02-04T07:46:47;13.22;;;9.50;;
30677;SDS011;73746;47.466;8.992;2024-02-04T07:49:18;11.97;;;7.65;;
30677;SDS011;73746;47.466;8.992;2024-02-04T07:51:50;19.05;;;8.65;;
30677;SDS011;73746;47.466;8.992;2024-02-04T07:54:22;11.10;;;8.10;;
30677;SDS011;73746;47.466;8.992;2024-02-04T07:56:54;8.40;;;6.05;;
30677;SDS011;73746;47.466;8.992;2024-02-04T07:59:26;10.25;;;6.58;;
30677;SDS011;73746;47.466;8.992;2024-02-04T08:01:58;11.05;;;7.37;;
30677;SDS011;73746;47.466;8.992;2024-02-04T08:04:30;9.78;;;7.10;;
30677;SDS011;73746;47.466;8.992;2024-02-04T08:07:02;7.75;;;5.53;;
30677;SDS011;73746;47.466;8.992;2024-02-04T08:09:35;11.50;;;6.40;;
30677;SDS011;73746;47.466;8.992;2024-02-04T08:12:07;11.45;;;5.47;;
30677;SDS011;73746;47.466;8.992;2024-02-04T08:14:39;14.23;;;6.40;;
30677;SDS011;73746;47.466;8.992;2024-02-04T08:17:11;7.53;;;5.37;;
30677;SDS011;73746;47.466;8.992;2024-02-04T08:19:43;9.83;;;5.70;;
30677;SDS011;73746;47.466;8.992;2024-02-04T08:22:15;8.68;;;5.92;;
30677;SDS011;73746;47.466;8.992;2024-02-04T08:27:41;7.28;;;4.55;;
30677;SDS011;73746;47.466;8.992;2024-02-04T08:30:13;8.58;;;4.67;;
30677;SDS011;73746;47.466;8.992;2024-02-04T08:32:46;7.83;;;4.92;;
30677;SDS011;73746;47.466;8.992;2024-02-04T08:35:18;7.08;;;4.53;;
30677;SDS011;73746;47.466;8.992;2024-02-04T08:37:49;8.60;;;5.80;;
30677;SDS011;73746;47.466;8.992;2024-02-04T08:40:21;13.03;;;5.75;;
30677;SDS011;73746;47.466;8.992;2024-02-04T08:42:53;9.85;;;6.45;;
30677;SDS011;73746;47.466;8.992;2024-02-04T08:45:25;7.70;;;4.42;;
30677;SDS011;73746;47.466;8.992;2024-02-04T08:47:57;9.98;;;5.83;;
30677;SDS011;73746;47.466;8.992;2024-02-04T08:50:29;7.03;;;4.95;;
30677;SDS011;73746;47.466;8.992;2024-02-04T08:53:01;9.00;;;4.10;;
30677;SDS011;73746;47.466;8.992;2024-02-04T08:55:32;6.62;;;4.85;;
30677;SDS011;73746;47.466;8.992;2024-02-04T08:58:06;7.47;;;4.85;;
30677;SDS011;73746;47.466;8.992;2024-02-04T09:00:38;18.25;;;10.48;;
30677;SDS011;73746;47.466;8.992;2024-02-04T09:03:10;8.50;;;5.80;;
30677;SDS011;73746;47.466;8.992;2024-02-04T09:05:42;8.20;;;3.83;;
30677;SDS011;73746;47.466;8.992;2024-02-04T09:08:14;7.22;;;4.67;;
30677;SDS011;73746;47.466;8.992;2024-02-04T09:10:46;16.32;;;7.67;;
30677;SDS011;73746;47.466;8.992;2024-02-04T09:13:18;20.92;;;8.48;;
30677;SDS011;73746;47.466;8.992;2024-02-04T09:15:50;20.25;;;8.28;;
30677;SDS011;73746;47.466;8.992;2024-02-04T09:18:23;17.90;;;7.42;;
30677;SDS011;73746;47.466;8.992;2024-02-04T09:20:55;13.75;;;6.80;;
30677;SDS011;73746;47.466;8.992;2024-02-04T09:23:27;10.15;;;5.70;;
30677;SDS011;73746;47.466;8.992;2024-02-04T09:25:59;13.88;;;6.67;;
30677;SDS011;73746;47.466;8.992;2024-02-04T09:28:32;8.40;;;5.60;;
30677;SDS011;73746;47.466;8.992;2024-02-04T09:31:04;7.00;;;4.33;;
30677;SDS011;73746;47.466;8.992;2024-02-04T09:33:38;10.15;;;4.80;;
30677;SDS011;73746;47.466;8.992;2024-02-04T09:36:10;12.18;;;4.12;;
30677;SDS011;73746;47.466;8.992;2024-02-04T09:38:43;8.48;;;4.22;;
30677;SDS011;73746;47.466;8.992;2024-02-04T09:41:15;12.73;;;5.28;;
30677;SDS011;73746;47.466;8.992;2024-02-04T09:43:47;7.15;;;5.40;;
30677;SDS011;73746;47.466;8.992;2024-02-04T09:46:19;10.58;;;6.42;;
30677;SDS011;73746;47.466;8.992;2024-02-04T09:48:51;6.72;;;4.10;;
30677;SDS011;73746;47.466;8.992;2024-02-04T09:54:16;7.42;;;4.47;;
30677;SDS011;73746;47.466;8.992;2024-02-04T09:56:51;11.18;;;3.72;;
30677;SDS011;73746;47.466;8.992;2024-02-04T09:59:23;7.83;;;4.40;;
30677;SDS011;73746;47.466;8.992;2024-02-04T10:01:56;8.15;;;4.40;;
30677;SDS011;73746;47.466;8.992;2024-02-04T10:04:28;6.35;;;3.87;;
30677;SDS011;73746;47.466;8.992;2024-02-04T10:07:00;8.68;;;4.15;;
30677;SDS011;73746;47.466;8.992;2024-02-04T10:09:32;9.43;;;5.03;;
30677;SDS011;73746;47.466;8.992;2024-02-04T10:12:05;7.65;;;3.60;;
30677;SDS011;73746;47.466;8.992;2024-02-04T10:14:38;7.10;;;4.72;;
30677;SDS011;73746;47.466;8.992;2024-02-04T10:17:10;11.55;;;3.40;;
30677;SDS011;73746;47.466;8.992;2024-02-04T10:19:46;7.55;;;4.17;;
30677;SDS011;73746;47.466;8.992;2024-02-04T10:22:18;8.80;;;3.35;;
30677;SDS011;73746;47.466;8.992;2024-02-04T10:24:50;7.10;;;3.72;;
30677;SDS011;73746;47.466;8.992;2024-02-04T10:27:22;8.00;;;3.83;;
30677;SDS011;73746;47.466;8.992;2024-02-04T10:29:57;6.30;;;2.85;;
30677;SDS011;73746;47.466;8.992;2024-02-04T10:32:29;9.18;;;4.92;;
30677;SDS011;73746;47.466;8.992;2024-02-04T10:35:02;3.90;;;3.02;;
30677;SDS011;73746;47.466;8.992;2024-02-04T10:37:35;12.25;;;3.87;;
30677;SDS011;73746;47.466;8.992;2024-02-04T10:40:08;13.53;;;4.72;;
30677;SDS011;73746;47.466;8.992;2024-02-04T10:42:41;6.47;;;3.80;;
30677;SDS011;73746;47.466;8.992;2024-02-04T10:45:13;8.43;;;3.75;;
30677;SDS011;73746;47.466;8.992;2024-02-04T10:47:50;6.62;;;4.15;;
30677;SDS011;73746;47.466;8.992;2024-02-04T10:50:27;6.67;;;3.70;;
30677;SDS011;73746;47.466;8.992;2024-02-04T10:53:02;7.83;;;3.90;;
30677;SDS011;73746;47.466;8.992;2024-02-04T10:55:38;6.05;;;3.77;;
30677;SDS011;73746;47.466;8.992;2024-02-04T10:58:11;9.08;;;4.17;;
30677;SDS011;73746;47.466;8.992;2024-02-04T11:00:44;8.63;;;5.85;;
30677;SDS011;73746;47.466;8.992;2024-02-04T11:03:17;11.28;;;4.20;;
30677;SDS011;73746;47.466;8.992;2024-02-04T11:05:50;6.50;;;3.20;;
30677;SDS011;73746;47.466;8.992;2024-02-04T11:08:22;6.45;;;4.40;;
30677;SDS011;73746;47.466;8.992;2024-02-04T11:10:54;6.92;;;3.95;;
30677;SDS011;73746;47.466;8.992;2024-02-04T11:13:26;5.97;;;3.00;;
30677;SDS011;73746;47.466;8.992;2024-02-04T11:16:01;5.25;;;3.25;;
30677;SDS011;73746;47.466;8.992;2024-02-04T11:18:46;12.53;;;3.37;;
30677;SDS011;73746;47.466;8.992;2024-02-04T11:21:33;6.53;;;3.33;;
30677;SDS011;73746;47.466;8.992;2024-02-04T11:24:17;9.33;;;3.40;;
30677;SDS011;73746;47.466;8.992;2024-02-04T11:26:52;6.25;;;3.58;;
30677;SDS011;73746;47.466;8.992;2024-02-04T11:29:24;7.60;;;3.60;;
30677;SDS011;73746;47.466;8.992;2024-02-04T11:31:57;6.40;;;3.15;;
30677;SDS011;73746;47.466;8.992;2024-02-04T11:34:29;9.75;;;4.08;;
30677;SDS011;73746;47.466;8.992;2024-02-04T11:37:01;5.58;;;2.92;;
30677;SDS011;73746;47.466;8.992;2024-02-04T11:39:35;8.03;;;4.10;;
30677;SDS011;73746;47.466;8.992;2024-02-04T11:42:14;8.55;;;2.98;;
30677;SDS011;73746;47.466;8.992;2024-02-04T11:44:46;18.15;;;6.72;;
30677;SDS011;73746;47.466;8.992;2024-02-04T11:47:25;7.10;;;4.08;;
30677;SDS011;73746;47.466;8.992;2024-02-04T11:49:58;6.67;;;4.65;;
30677;SDS011;73746;47.466;8.992;2024-02-04T11:52:30;6.22;;;2.70;;
30677;SDS011;73746;47.466;8.992;2024-02-04T11:55:02;11.40;;;4.55;;
30677;SDS011;73746;47.466;8.992;2024-02-04T11:57:36;13.05;;;4.40;;
30677;SDS011;73746;47.466;8.992;2024-02-04T12:00:10;6.42;;;2.72;;
30677;SDS011;73746;47.466;8.992;2024-02-04T12:02:43;5.30;;;2.62;;
30677;SDS011;73746;47.466;8.992;2024-02-04T12:05:15;12.70;;;3.55;;
30677;SDS011;73746;47.466;8.992;2024-02-04T12:07:47;10.75;;;5.72;;
30677;SDS011;73746;47.466;8.992;2024-02-04T12:10:20;14.85;;;3.90;;
30677;SDS011;73746;47.466;8.992;2024-02-04T12:12:53;9.55;;;3.75;;
30677;SDS011;73746;47.466;8.992;2024-02-04T12:16:39;7.25;;;3.00;;
30677;SDS011;73746;47.466;8.992;2024-02-04T12:19:11;9.08;;;3.52;;
30677;SDS011;73746;47.466;8.992;2024-02-04T12:21:43;10.05;;;3.60;;
30677;SDS011;73746;47.466;8.992;2024-02-04T12:24:15;12.05;;;3.15;;
30677;SDS011;73746;47.466;8.992;2024-02-04T12:26:47;6.67;;;2.62;;
30677;SDS011;73746;47.466;8.992;2024-02-04T12:29:19;9.48;;;3.55;;
30677;SDS011;73746;47.466;8.992;2024-02-04T12:31:58;6.37;;;3.05;;
30677;SDS011;73746;47.466;8.992;2024-02-04T12:34:30;10.68;;;3.17;;
30677;SDS011;73746;47.466;8.992;2024-02-04T12:37:04;9.18;;;3.35;;
30677;SDS011;73746;47.466;8.992;2024-02-04T12:39:35;8.95;;;3.30;;
30677;SDS011;73746;47.466;8.992;2024-02-04T12:42:07;9.73;;;2.83;;
30677;SDS011;73746;47.466;8.992;2024-02-04T12:44:39;8.90;;;5.25;;
30677;SDS011;73746;47.466;8.992;2024-02-04T12:47:11;4.12;;;2.83;;
30677;SDS011;73746;47.466;8.992;2024-02-04T12:49:44;13.10;;;3.60;;
30677;SDS011;73746;47.466;8.992;2024-02-04T12:52:20;8.25;;;3.27;;
30677;SDS011;73746;47.466;8.992;2024-02-04T12:54:50;9.28;;;3.77;;
30677;SDS011;73746;47.466;8.992;2024-02-04T12:57:25;9.80;;;3.02;;
30677;SDS011;73746;47.466;8.992;2024-02-04T13:00:04;7.92;;;3.30;;
30677;SDS011;73746;47.466;8.992;2024-02-04T13:02:39;8.73;;;4.17;;
30677;SDS011;73746;47.466;8.992;2024-02-04T13:05:22;14.25;;;5.65;;
30677;SDS011;73746;47.466;8.992;2024-02-04T13:07:54;6.75;;;3.50;;
30677;SDS011;73746;47.466;8.992;2024-02-04T13:10:28;7.40;;;3.20;;
30677;SDS011;73746;47.466;8.992;2024-02-04T13:13:04;14.95;;;3.58;;
30677;SDS011;73746;47.466;8.992;2024-02-04T13:15:38;15.78;;;4.20;;
30677;SDS011;73746;47.466;8.992;2024-02-04T13:18:12;12.23;;;3.00;;
30677;SDS011;73746;47.466;8.992;2024-02-04T13:20:45;10.98;;;3.83;;
30677;SDS011;73746;47.466;8.992;2024-02-04T13:23:17;7.92;;;2.90;;
30677;SDS011;73746;47.466;8.992;2024-02-04T13:25:49;10.43;;;2.67;;
30677;SDS011;73746;47.466;8.992;2024-02-04T13:28:21;7.95;;;2.70;;
30677;SDS011;73746;47.466;8.992;2024-02-04T13:30:53;7.53;;;3.47;;
30677;SDS011;73746;47.466;8.992;2024-02-04T13:33:25;8.65;;;3.85;;
30677;SDS011;73746;47.466;8.992;2024-02-04T13:35:57;7.95;;;3.45;;
30677;SDS011;73746;47.466;8.992;2024-02-04T13:38:30;9.38;;;2.87;;
30677;SDS011;73746;47.466;8.992;2024-02-04T13:41:01;10.58;;;3.67;;
30677;SDS011;73746;47.466;8.992;2024-02-04T13:43:35;18.85;;;3.90;;
30677;SDS011;73746;47.466;8.992;2024-02-04T13:46:07;13.75;;;3.17;;
30677;SDS011;73746;47.466;8.992;2024-02-04T13:48:39;7.47;;;3.42;;
30677;SDS011;73746;47.466;8.992;2024-02-04T13:51:11;17.45;;;5.55;;
30677;SDS011;73746;47.466;8.992;2024-02-04T13:53:44;8.58;;;2.55;;
30677;SDS011;73746;47.466;8.992;2024-02-04T13:56:16;20.77;;;4.75;;
30677;SDS011;73746;47.466;8.992;2024-02-04T13:58:48;8.38;;;3.65;;
30677;SDS011;73746;47.466;8.992;2024-02-04T14:04:11;17.57;;;4.05;;
30677;SDS011;73746;47.466;8.992;2024-02-04T14:06:43;9.28;;;2.67;;
30677;SDS011;73746;47.466;8.992;2024-02-04T14:09:15;11.25;;;3.27;;
30677;SDS011;73746;47.466;8.992;2024-02-04T14:11:47;7.50;;;4.03;;
30677;SDS011;73746;47.466;8.992;2024-02-04T14:14:18;13.30;;;6.20;;
30677;SDS011;73746;47.466;8.992;2024-02-04T14:16:50;8.30;;;3.75;;
30677;SDS011;73746;47.466;8.992;2024-02-04T14:19:23;12.63;;;3.65;;
30677;SDS011;73746;47.466;8.992;2024-02-04T14:21:55;9.88;;;2.77;;
30677;SDS011;73746;47.466;8.992;2024-02-04T14:24:27;9.58;;;3.67;;
30677;SDS011;73746;47.466;8.992;2024-02-04T14:26:59;19.87;;;6.17;;
30677;SDS011;73746;47.466;8.992;2024-02-04T14:29:30;10.20;;;3.95;;
30677;SDS011;73746;47.466;8.992;2024-02-04T14:32:03;8.33;;;3.35;;
30677;SDS011;73746;47.466;8.992;2024-02-04T14:34:35;14.87;;;7.00;;
30677;SDS011;73746;47.466;8.992;2024-02-04T14:37:07;9.03;;;3.35;;
30677;SDS011;73746;47.466;8.992;2024-02-04T14:39:41;13.00;;;3.72;;
30677;SDS011;73746;47.466;8.992;2024-02-04T14:42:13;7.20;;;2.98;;
30677;SDS011;73746;47.466;8.992;2024-02-04T14:44:45;7.58;;;3.60;;
30677;SDS011;73746;47.466;8.992;2024-02-04T14:47:17;11.45;;;4.37;;
30677;SDS011;73746;47.466;8.992;2024-02-04T14:49:48;8.48;;;5.28;;
30677;SDS011;73746;47.466;8.992;2024-02-04T14:52:20;6.40;;;3.58;;
30677;SDS011;73746;47.466;8.992;2024-02-04T14:54:52;8.03;;;3.65;;
30677;SDS011;73746;47.466;8.992;2024-02-04T14:57:24;12.50;;;4.00;;
30677;SDS011;73746;47.466;8.992;2024-02-04T14:59:56;8.50;;;3.67;;
30677;SDS011;73746;47.466;8.992;2024-02-04T15:02:29;5.65;;;2.90;;
30677;SDS011;73746;47.466;8.992;2024-02-04T15:05:01;10.93;;;3.22;;
30677;SDS011;73746;47.466;8.992;2024-02-04T15:07:33;8.98;;;3.02;;
30677;SDS011;73746;47.466;8.992;2024-02-04T15:10:06;9.98;;;4.33;;
30677;SDS011;73746;47.466;8.992;2024-02-04T15:12:40;9.75;;;3.58;;
30677;SDS011;73746;47.466;8.992;2024-02-04T15:15:14;7.12;;;3.98;;
30677;SDS011;73746;47.466;8.992;2024-02-04T15:17:48;9.08;;;3.33;;
30677;SDS011;73746;47.466;8.992;2024-02-04T15:20:21;11.05;;;3.75;;
30677;SDS011;73746;47.466;8.992;2024-02-04T15:22:54;14.07;;;4.60;;